createdAt,value
2022-09-23T00:03:13.050Z,100764.03
2022-09-23T00:08:15.841Z,100758.28
2022-09-23T00:13:19.837Z,100757.00
2022-09-23T00:18:22.633Z,100749.06
2022-09-23T00:23:25.264Z,100747.53
2022-09-23T00:28:29.582Z,100748.81
2022-09-23T00:33:32.409Z,100748.19
2022-09-23T00:38:35.268Z,100741.44
2022-09-23T00:43:41.659Z,100742.31
2022-09-23T00:48:46.084Z,100741.53
2022-09-23T00:53:51.371Z,100734.16
2022-09-23T00:58:55.735Z,100729.03
2022-09-23T01:03:59.506Z,100724.97
2022-09-23T01:09:02.449Z,100715.63
2022-09-23T01:14:21.814Z,100721.22
2022-09-23T01:19:51.498Z,100713.25
2022-09-23T01:25:14.265Z,100709.94
2022-09-23T01:30:39.615Z,100710.16
2022-09-23T01:35:55.216Z,100702.13
2022-09-23T01:41:03.680Z,100695.59
2022-09-23T01:46:14.297Z,100694.63
2022-09-23T01:51:24.133Z,100692.03
2022-09-23T01:56:30.347Z,100684.66
2022-09-23T02:01:40.025Z,100683.56
2022-09-23T02:06:50.702Z,100685.53
2022-09-23T02:12:00.607Z,100686.47
2022-09-23T02:17:09.920Z,100679.19
2022-09-23T02:22:18.051Z,100684.47
2022-09-23T02:27:26.813Z,100673.19
2022-09-23T02:32:35.873Z,100674.88
2022-09-23T02:37:45.836Z,100670.81
2022-09-23T02:42:55.994Z,100668.78
2022-09-23T02:48:05.818Z,100669.53
2022-09-23T02:53:09.941Z,100667.28
2022-09-23T02:58:14.454Z,100671.47
2022-09-23T03:03:30.993Z,100667.38
2022-09-23T03:08:44.109Z,100662.25
2022-09-23T03:13:56.310Z,100656.78
2022-09-23T03:19:09.443Z,100654.72
2022-09-23T03:24:15.784Z,100649.38
2022-09-23T03:29:20.588Z,100647.34
2022-09-23T03:34:28.019Z,100646.16
2022-09-23T03:39:37.868Z,100645.22
2022-09-23T03:44:44.477Z,100638.13
2022-09-23T03:49:49.269Z,100625.06
2022-09-23T03:54:53.800Z,100627.97
2022-09-23T03:59:56.756Z,100618.97
2022-09-23T04:04:59.530Z,100617.13
2022-09-23T04:10:03.589Z,100600.72
2022-09-23T04:15:07.596Z,100601.16
2022-09-23T04:20:10.911Z,100597.00
2022-09-23T04:25:15.148Z,100595.38
2022-09-23T04:30:18.648Z,100586.16
2022-09-23T04:35:21.461Z,100588.97
2022-09-23T04:40:25.528Z,100590.03
2022-09-23T04:45:29.645Z,100584.56
2022-09-23T04:50:34.774Z,100579.34
2022-09-23T04:55:38.935Z,100593.00
2022-09-23T05:00:41.786Z,100584.41
2022-09-23T05:05:44.629Z,100578.31
2022-09-23T05:10:49.445Z,100583.66
2022-09-23T05:15:58.880Z,100578.63
2022-09-23T05:21:02.003Z,100577.31
2022-09-23T05:26:08.247Z,100587.19
2022-09-23T05:31:19.365Z,100577.41
2022-09-23T05:36:23.952Z,100587.41
2022-09-23T05:41:28.688Z,100578.53
2022-09-23T05:46:33.285Z,100579.38
2022-09-23T05:51:36.644Z,100582.91
2022-09-23T05:56:40.811Z,100585.44
2022-09-23T06:01:45.189Z,100565.88
2022-09-23T06:06:48.174Z,100560.41
2022-09-23T06:11:52.326Z,100558.06
2022-09-23T06:16:55.122Z,100563.41
2022-09-23T06:21:57.797Z,100559.16
2022-09-23T06:27:02.546Z,100558.28
2022-09-23T06:32:05.730Z,100561.09
2022-09-23T06:37:17.763Z,100573.72
2022-09-23T06:42:24.353Z,100574.69
2022-09-23T06:47:27.214Z,100580.72
2022-09-23T06:52:30.045Z,100577.69
2022-09-23T06:57:34.593Z,100583.72
2022-09-23T07:02:37.421Z,100574.25
2022-09-23T07:07:41.256Z,100572.44
2022-09-23T07:12:45.576Z,100571.28
2022-09-23T07:17:49.419Z,100564.56
2022-09-23T07:22:52.817Z,100573.75
2022-09-23T07:27:58.401Z,100571.56
2022-09-23T07:33:01.303Z,100575.84
2022-09-23T07:38:04.326Z,100573.50
2022-09-23T07:43:08.975Z,100570.88
2022-09-23T07:48:12.509Z,100567.25
2022-09-23T07:53:15.746Z,100567.31
2022-09-23T07:58:19.989Z,100568.91
2022-09-23T08:03:22.853Z,100566.78
2022-09-23T08:08:25.931Z,100558.09
2022-09-23T08:13:30.868Z,100558.69
2022-09-23T08:18:34.071Z,100554.13
2022-09-23T08:23:36.889Z,100559.06
2022-09-23T08:28:45.235Z,100555.41
2022-09-23T08:33:48.104Z,100548.78
2022-09-23T08:38:51.035Z,100550.38
2022-09-23T08:43:59.934Z,100550.38
2022-09-23T08:49:03.275Z,100551.94
2022-09-23T08:54:07.529Z,100538.88
2022-09-23T08:59:19.118Z,100542.88
2022-09-23T09:04:25.817Z,100540.91
2022-09-23T09:09:32.101Z,100547.59
2022-09-23T09:14:44.768Z,100544.69
2022-09-23T09:19:57.341Z,100537.25
2022-09-23T09:25:06.150Z,100534.94
2022-09-23T09:30:14.500Z,100525.78
2022-09-23T09:35:26.381Z,100523.44
2022-09-23T09:40:29.257Z,100516.69
2022-09-23T09:45:57.570Z,100512.09
2022-09-23T09:51:19.105Z,100504.31
2022-09-23T09:56:27.229Z,100492.91
2022-09-23T10:01:33.388Z,100491.28
2022-09-23T10:06:37.107Z,100490.91
2022-09-23T10:11:40.460Z,100479.16
2022-09-23T10:16:47.153Z,100479.31
2022-09-23T10:21:54.544Z,100473.84
2022-09-23T10:27:00.940Z,100479.31
2022-09-23T10:32:25.604Z,100466.72
2022-09-23T10:37:34.514Z,100465.25
2022-09-23T10:43:11.432Z,100466.19
2022-09-23T10:48:26.421Z,100464.16
2022-09-23T10:53:43.488Z,100462.94
2022-09-23T10:59:05.525Z,100462.88
2022-09-23T11:04:32.580Z,100453.78
2022-09-23T11:09:51.044Z,100455.94
2022-09-23T11:15:10.886Z,100453.16
2022-09-23T11:20:38.028Z,100441.31
2022-09-23T11:25:50.568Z,100437.13
2022-09-23T11:31:04.188Z,100430.06
2022-09-23T11:36:13.547Z,100419.53
2022-09-23T11:41:21.555Z,100408.25
2022-09-23T11:46:32.051Z,100405.66
2022-09-23T11:51:44.438Z,100405.34
2022-09-23T11:56:51.466Z,100403.19
2022-09-23T12:02:09.304Z,100411.19
2022-09-23T12:07:23.157Z,100399.28
2022-09-23T12:12:36.306Z,100404.63
2022-09-23T12:18:06.571Z,100400.09
2022-09-23T12:23:27.143Z,100392.84
2022-09-23T12:28:33.769Z,100382.25
2022-09-23T12:33:37.308Z,100373.53
2022-09-23T12:38:47.937Z,100376.25
2022-09-23T12:43:56.562Z,100379.34
2022-09-23T12:49:02.040Z,100375.66
2022-09-23T12:54:25.212Z,100359.56
2022-09-23T12:59:31.093Z,100361.00
2022-09-23T13:05:01.374Z,100373.75
2022-09-23T13:10:10.078Z,100355.28
2022-09-23T13:15:19.835Z,100370.09
2022-09-23T13:20:38.408Z,100363.72
2022-09-23T13:25:43.800Z,100352.72
2022-09-23T13:30:52.020Z,100337.66
2022-09-23T13:35:58.609Z,100340.94
2022-09-23T13:41:08.190Z,100323.75
2022-09-23T13:46:14.559Z,100332.06
2022-09-23T13:51:22.961Z,100331.91
2022-09-23T13:56:29.432Z,100324.38
2022-09-23T14:01:34.307Z,100326.97
2022-09-23T14:06:42.037Z,100328.81
2022-09-23T14:11:46.373Z,100331.56
2022-09-23T14:16:51.694Z,100307.28
2022-09-23T14:21:56.075Z,100310.03
2022-09-23T14:27:03.321Z,100301.13
2022-09-23T14:32:08.246Z,100297.13
2022-09-23T14:37:38.925Z,100288.25
2022-09-23T14:42:46.346Z,100285.69
2022-09-23T14:47:52.529Z,100288.59
2022-09-23T14:52:55.306Z,100288.66
2022-09-23T14:58:05.250Z,100292.75
2022-09-23T15:03:16.186Z,100286.13
2022-09-23T15:08:21.507Z,100280.84
2022-09-23T15:13:30.479Z,100271.09
2022-09-23T15:18:35.923Z,100271.66
2022-09-23T15:23:46.275Z,100261.47
2022-09-23T15:28:51.974Z,100262.91
2022-09-23T15:33:55.911Z,100258.28
2022-09-23T15:39:02.914Z,100250.34
2022-09-23T15:44:13.569Z,100258.09
2022-09-23T15:49:23.137Z,100263.50
2022-09-23T15:54:26.106Z,100250.91
2022-09-23T15:59:31.526Z,100253.16
2022-09-23T16:04:35.925Z,100262.19
2022-09-23T16:09:38.667Z,100251.00
2022-09-23T16:14:42.819Z,100247.47
2022-09-23T16:19:46.752Z,100244.91
2022-09-23T16:24:49.539Z,100246.97
2022-09-23T16:29:53.590Z,100246.78
2022-09-23T16:34:58.475Z,100240.34
2022-09-23T16:40:02.078Z,100238.00
2022-09-23T16:45:07.320Z,100234.22
2022-09-23T16:50:11.439Z,100240.50
2022-09-23T16:55:15.255Z,100240.50
2022-09-23T17:00:37.234Z,100243.38
2022-09-23T17:05:40.473Z,100231.84
2022-09-23T17:10:44.530Z,100247.41
2022-09-23T17:15:48.634Z,100241.28
2022-09-23T17:20:59.197Z,100245.16
2022-09-23T17:26:05.432Z,100242.44
2022-09-23T17:31:09.947Z,100237.97
2022-09-23T17:36:14.175Z,100244.06
2022-09-23T17:41:18.069Z,100241.00
2022-09-23T17:46:23.171Z,100233.34
2022-09-23T17:51:26.973Z,100234.72
2022-09-23T17:56:30.841Z,100232.81
2022-09-23T18:01:35.556Z,100236.00
2022-09-23T18:06:38.895Z,100231.25
2022-09-23T18:11:44.149Z,100233.75
2022-09-23T18:16:50.631Z,100233.41
2022-09-23T18:21:56.078Z,100228.44
2022-09-23T18:26:59.916Z,100227.41
2022-09-23T18:32:05.045Z,100229.75
2022-09-23T18:37:15.242Z,100233.03
2022-09-23T18:42:18.497Z,100233.28
2022-09-23T18:47:36.683Z,100225.41
2022-09-23T18:52:39.593Z,100227.09
2022-09-23T18:57:42.455Z,100225.22
2022-09-23T19:02:46.981Z,100227.75
2022-09-23T19:07:49.950Z,100226.88
2022-09-23T19:12:52.815Z,100225.28
2022-09-23T19:17:57.238Z,100224.38
2022-09-23T19:23:00.034Z,100216.88
2022-09-23T19:28:05.438Z,100216.13
2022-09-23T19:33:10.099Z,100227.88
2022-09-23T19:38:13.246Z,100216.97
2022-09-23T19:43:17.038Z,100218.94
2022-09-23T19:48:21.491Z,100219.84
2022-09-23T19:53:28.004Z,100218.63
2022-09-23T19:58:31.200Z,100221.88
2022-09-23T20:03:35.432Z,100218.78
2022-09-23T20:08:38.702Z,100219.38
2022-09-23T20:13:43.961Z,100214.38
2022-09-23T20:18:52.842Z,100207.91
2022-09-23T20:23:55.714Z,100205.00
2022-09-23T20:28:59.404Z,100196.94
2022-09-23T20:34:05.855Z,100194.56
2022-09-23T20:39:10.030Z,100195.19
2022-09-23T20:44:13.876Z,100192.94
2022-09-23T20:49:19.025Z,100197.63
2022-09-23T20:54:23.251Z,100189.81
2022-09-23T20:59:27.232Z,100188.34
2022-09-23T21:04:31.787Z,100188.47
2022-09-23T21:09:34.801Z,100201.47
2022-09-23T21:14:37.804Z,100204.25
2022-09-23T21:19:41.921Z,100197.28
2022-09-23T21:25:25.714Z,100196.88
2022-09-23T21:30:08.653Z,100201.00
2022-09-23T21:35:12.820Z,100199.28
2022-09-23T21:40:33.389Z,100196.97
2022-09-23T21:45:36.359Z,100189.69
2022-09-23T21:50:40.995Z,100201.88
2022-09-23T21:55:44.079Z,100198.34
2022-09-23T22:00:46.978Z,100199.34
2022-09-23T22:06:01.726Z,100200.88
2022-09-23T22:11:06.774Z,100197.50
2022-09-23T22:16:10.689Z,100199.19
2022-09-23T22:21:14.901Z,100189.69
2022-09-23T22:26:17.826Z,100198.59
2022-09-23T22:31:38.202Z,100187.91
2022-09-23T22:36:42.424Z,100182.63
2022-09-23T22:41:45.886Z,100184.19
2022-09-23T22:46:49.415Z,100181.06
2022-09-23T22:51:54.076Z,100184.78
2022-09-23T22:56:56.945Z,100177.63
2022-09-23T23:02:02.436Z,100169.84
2022-09-23T23:07:06.938Z,100164.44
2022-09-23T23:12:09.784Z,100148.69
2022-09-23T23:17:12.618Z,100154.78
2022-09-23T23:22:16.784Z,100154.63
2022-09-23T23:27:19.582Z,100153.78
2022-09-23T23:32:22.341Z,100143.44
2022-09-23T23:37:26.514Z,100140.78
2022-09-23T23:42:29.554Z,100142.81
2022-09-23T23:47:32.330Z,100143.84
2022-09-23T23:52:36.558Z,100140.44
2022-09-23T23:57:39.457Z,100139.47
